createdAt,value
2018-04-11T00:00:35.680Z,85.70
2018-04-11T00:03:02.515Z,85.20
2018-04-11T00:05:29.354Z,86.90
2018-04-11T00:07:56.607Z,89.80
2018-04-11T00:10:23.505Z,89.80
2018-04-11T00:12:50.784Z,90.20
2018-04-11T00:15:17.740Z,90.20
2018-04-11T00:17:44.601Z,89.80
2018-04-11T00:20:11.560Z,89.40
2018-04-11T00:22:38.415Z,89.80
2018-04-11T00:25:05.263Z,90.30
2018-04-11T00:27:32.303Z,90.30
2018-04-11T00:29:59.603Z,89.20
2018-04-11T00:32:26.468Z,89.20
2018-04-11T00:34:53.324Z,88.00
2018-04-11T00:37:20.175Z,87.80
2018-04-11T00:39:47.136Z,87.30
2018-04-11T00:42:14.063Z,86.80
2018-04-11T00:44:41.413Z,85.90
2018-04-11T00:47:08.672Z,86.20
2018-04-11T00:49:35.511Z,86.20
2018-04-11T00:52:02.437Z,88.20
2018-04-11T00:54:29.267Z,89.10
2018-04-11T00:56:56.528Z,89.10
2018-04-11T00:59:23.783Z,88.00
2018-04-11T01:01:50.636Z,88.00
2018-04-11T01:04:17.509Z,87.90
2018-04-11T01:06:44.802Z,87.00
2018-04-11T01:09:11.655Z,87.00
2018-04-11T01:11:38.511Z,87.40
2018-04-11T01:14:05.347Z,87.90
2018-04-11T01:16:32.646Z,87.70
2018-04-11T01:18:59.501Z,87.70
2018-04-11T01:21:26.394Z,88.30
2018-04-11T01:23:53.251Z,88.70
2018-04-11T01:26:20.118Z,88.40
2018-04-11T01:28:47.055Z,88.30
2018-04-11T01:31:13.979Z,88.20
2018-04-11T01:33:40.847Z,88.30
2018-04-11T01:36:07.697Z,88.10
2018-04-11T01:38:34.654Z,87.80
2018-04-11T01:41:01.618Z,88.00
2018-04-11T01:43:28.473Z,88.00
2018-04-11T01:45:55.334Z,87.70
2018-04-11T01:48:22.194Z,87.80
2018-04-11T01:50:49.065Z,88.20
2018-04-11T01:53:16.003Z,88.30
2018-04-11T01:55:42.874Z,88.70
2018-04-11T01:58:09.747Z,89.00
2018-04-11T02:00:36.675Z,88.80
2018-04-11T02:03:03.644Z,88.70
2018-04-11T02:05:30.483Z,88.30
2018-04-11T02:07:57.449Z,88.20
2018-04-11T02:10:24.320Z,88.30
2018-04-11T02:12:51.287Z,88.70
2018-04-11T02:15:18.232Z,88.30
2018-04-11T02:17:45.087Z,87.90
2018-04-11T02:20:12.047Z,88.20
2018-04-11T02:22:38.894Z,87.00
2018-04-11T02:25:05.758Z,86.60
2018-04-11T02:27:32.619Z,87.20
2018-04-11T02:29:59.503Z,87.40
2018-04-11T02:32:26.376Z,87.50
2018-04-11T02:34:53.323Z,87.40
2018-04-11T02:37:20.155Z,87.20
2018-04-11T02:39:46.998Z,86.60
2018-04-11T02:42:13.863Z,86.20
2018-04-11T02:44:40.815Z,86.00
2018-04-11T02:47:07.683Z,85.90
2018-04-11T02:49:34.552Z,85.80
2018-04-11T02:52:01.416Z,85.90
2018-04-11T02:54:28.346Z,85.60
2018-04-11T02:56:55.320Z,85.20
2018-04-11T02:59:22.155Z,85.10
2018-04-11T03:01:49.118Z,84.50
2018-04-11T03:04:15.975Z,84.20
2018-04-11T03:06:42.832Z,85.00
2018-04-11T03:09:09.796Z,85.20
2018-04-11T03:11:36.638Z,85.70
2018-04-11T03:14:03.509Z,85.70
2018-04-11T03:16:30.359Z,85.80
2018-04-11T03:18:57.232Z,86.20
2018-04-11T03:21:24.072Z,85.60
2018-04-11T03:23:50.914Z,85.70
2018-04-11T03:26:18.207Z,85.50
2018-04-11T03:28:45.070Z,85.50
2018-04-11T03:31:11.931Z,85.80
2018-04-11T03:33:38.891Z,85.90
2018-04-11T03:36:05.880Z,85.80
2018-04-11T03:38:32.687Z,85.80
2018-04-11T03:40:59.551Z,85.50
2018-04-11T03:43:26.420Z,85.00
2018-04-11T03:45:53.274Z,85.20
2018-04-11T03:48:20.158Z,85.40
2018-04-11T03:50:47.019Z,85.60
2018-04-11T03:53:13.936Z,85.30
2018-04-11T03:55:40.779Z,85.70
2018-04-11T03:58:07.636Z,85.50
2018-04-11T04:00:34.494Z,85.80
2018-04-11T04:03:01.369Z,86.00
2018-04-11T04:05:28.209Z,86.20
2018-04-11T04:07:55.180Z,86.40
2018-04-11T04:10:22.021Z,86.40
2018-04-11T04:12:48.864Z,86.40
2018-04-11T04:18:28.428Z,86.20
2018-04-11T04:20:55.348Z,86.20
2018-04-11T04:23:22.239Z,86.20
2018-04-11T04:25:49.155Z,85.80
2018-04-11T04:28:16.128Z,86.10
2018-04-11T04:30:42.975Z,86.20
2018-04-11T04:33:09.844Z,86.30
2018-04-11T04:35:36.703Z,86.30
2018-04-11T04:38:03.648Z,86.50
2018-04-11T04:40:30.610Z,86.30
2018-04-11T04:42:57.482Z,86.10
2018-04-11T04:45:24.327Z,86.20
2018-04-11T04:47:51.194Z,86.20
2018-04-11T04:50:18.059Z,86.30
2018-04-11T04:52:44.986Z,86.10
2018-04-11T04:55:11.911Z,85.90
2018-04-11T04:57:38.759Z,85.80
2018-04-11T05:00:05.671Z,86.10
2018-04-11T05:02:32.516Z,85.80
2018-04-11T05:04:59.392Z,85.80
2018-04-11T05:07:26.263Z,85.70
2018-04-11T05:09:53.124Z,85.70
2018-04-11T05:12:20.192Z,85.80
2018-04-11T05:14:47.114Z,86.00
2018-04-11T05:17:13.955Z,85.70
2018-04-11T05:19:40.943Z,85.90
2018-04-11T05:22:07.793Z,85.90
2018-04-11T05:24:34.657Z,86.10
2018-04-11T05:27:01.590Z,85.60
2018-04-11T05:29:28.878Z,85.90
2018-04-11T05:31:55.732Z,85.90
2018-04-11T05:34:22.612Z,85.40
2018-04-11T05:36:49.537Z,85.20
2018-04-11T05:39:16.403Z,84.90
2018-04-11T05:41:43.263Z,85.10
2018-04-11T05:44:10.131Z,85.30
2018-04-11T05:46:36.992Z,85.80
2018-04-11T05:49:03.833Z,85.80
2018-04-11T05:51:30.790Z,86.00
2018-04-11T05:53:57.627Z,86.00
2018-04-11T05:56:24.476Z,85.70
2018-04-11T05:58:51.768Z,85.70
2018-04-11T06:01:18.838Z,85.70
2018-04-11T06:03:45.711Z,85.50
2018-04-11T06:06:12.559Z,85.40
2018-04-11T06:08:39.416Z,85.40
2018-04-11T06:11:06.344Z,85.30
2018-04-11T06:13:33.624Z,85.50
2018-04-11T06:16:00.569Z,85.40
2018-04-11T06:18:28.163Z,85.40
2018-04-11T06:20:55.002Z,85.40
2018-04-11T06:23:21.892Z,85.30
2018-04-11T06:25:48.815Z,85.40
2018-04-11T06:28:15.690Z,85.40
2018-04-11T06:30:42.645Z,85.40
2018-04-11T06:33:09.876Z,85.20
2018-04-11T06:35:37.179Z,84.80
2018-04-11T06:38:04.132Z,84.80
2018-04-11T06:40:31.092Z,84.80
2018-04-11T06:42:57.940Z,84.80
2018-04-11T06:45:24.818Z,84.70
2018-04-11T06:47:51.675Z,84.70
2018-04-11T06:50:18.519Z,84.90
2018-04-11T06:52:45.388Z,84.70
2018-04-11T06:55:12.331Z,84.60
2018-04-11T06:57:39.198Z,84.60
2018-04-11T07:00:06.175Z,84.80
2018-04-11T07:02:33.026Z,84.60
2018-04-11T07:05:00.016Z,84.10
2018-04-11T07:07:26.884Z,84.30
2018-04-11T07:09:53.777Z,84.30
2018-04-11T07:12:21.048Z,84.20
2018-04-11T07:14:48.013Z,84.20
2018-04-11T07:17:14.875Z,84.10
2018-04-11T07:19:41.821Z,83.90
2018-04-11T07:22:08.677Z,84.10
2018-04-11T07:24:35.549Z,84.20
2018-04-11T07:27:02.611Z,84.60
2018-04-11T07:29:29.466Z,84.50
2018-04-11T07:31:56.316Z,84.30
2018-04-11T07:34:23.158Z,84.30
2018-04-11T07:36:50.463Z,83.70
2018-04-11T07:39:17.424Z,83.70
2018-04-11T07:41:44.390Z,83.80
2018-04-11T07:44:11.336Z,83.90
2018-04-11T07:46:38.299Z,83.70
2018-04-11T07:49:05.147Z,83.60
2018-04-11T07:51:32.004Z,83.70
2018-04-11T07:53:58.952Z,83.40
2018-04-11T07:56:26.224Z,83.50
2018-04-11T07:58:53.062Z,83.50
2018-04-11T08:01:20.355Z,83.20
2018-04-11T08:03:47.215Z,83.20
2018-04-11T08:06:14.084Z,83.00
2018-04-11T08:08:41.033Z,83.20
2018-04-11T08:11:07.900Z,83.10
2018-04-11T08:13:34.789Z,83.20
2018-04-11T08:16:01.705Z,83.10
2018-04-11T08:18:28.775Z,82.70
2018-04-11T08:20:55.607Z,82.70
2018-04-11T08:23:22.478Z,82.40
2018-04-11T08:25:49.325Z,82.30
2018-04-11T08:28:16.176Z,82.20
2018-04-11T08:30:43.075Z,81.90
2018-04-11T08:33:09.919Z,81.80
2018-04-11T08:35:36.847Z,81.60
2018-04-11T08:38:03.822Z,81.50
2018-04-11T08:40:30.768Z,81.00
2018-04-11T08:42:58.006Z,80.80
2018-04-11T08:45:24.848Z,80.80
2018-04-11T08:47:51.771Z,81.40
2018-04-11T08:50:18.623Z,81.70
2018-04-11T08:52:45.483Z,82.00
2018-04-11T08:55:12.325Z,81.90
2018-04-11T08:57:39.201Z,81.80
2018-04-11T09:00:06.034Z,81.70
2018-04-11T09:02:33.119Z,81.20
2018-04-11T09:04:59.972Z,81.00
2018-04-11T09:07:26.808Z,80.80
2018-04-11T09:09:53.671Z,80.30
2018-04-11T09:12:20.545Z,79.10
2018-04-11T09:14:47.404Z,80.00
2018-04-11T09:17:14.254Z,80.30
2018-04-11T09:19:41.111Z,79.90
2018-04-11T09:22:08.067Z,79.40
2018-04-11T09:24:35.027Z,79.50
2018-04-11T09:27:01.897Z,79.50
2018-04-11T09:29:28.738Z,80.20
2018-04-11T09:31:55.625Z,80.10
2018-04-11T09:34:22.455Z,79.60
2018-04-11T09:36:49.311Z,79.60
2018-04-11T09:39:16.272Z,79.80
2018-04-11T09:41:43.116Z,79.80
2018-04-11T09:44:10.087Z,79.10
2018-04-11T09:46:36.972Z,77.80
2018-04-11T09:49:03.921Z,77.10
2018-04-11T09:51:30.768Z,75.10
2018-04-11T09:53:57.667Z,75.00
2018-04-11T09:56:24.512Z,74.10
2018-04-11T09:58:51.386Z,73.60
2018-04-11T10:01:18.299Z,74.50
2018-04-11T10:03:45.173Z,75.20
2018-04-11T10:06:12.021Z,72.70
2018-04-11T10:08:38.883Z,73.40
2018-04-11T10:11:05.833Z,73.90
2018-04-11T10:13:32.701Z,74.70
2018-04-11T10:15:59.638Z,74.40
2018-04-11T10:18:26.483Z,73.80
2018-04-11T10:20:53.459Z,73.80
2018-04-11T10:23:20.415Z,73.40
2018-04-11T10:25:47.259Z,73.20
2018-04-11T10:28:14.119Z,73.40
2018-04-11T10:30:40.978Z,73.00
2018-04-11T10:33:07.911Z,71.70
2018-04-11T10:35:35.147Z,72.40
2018-04-11T10:38:02.063Z,72.40
2018-04-11T10:40:28.911Z,73.00
2018-04-11T10:42:55.816Z,73.40
2018-04-11T10:45:22.667Z,74.00
2018-04-11T10:47:49.527Z,74.60
2018-04-11T10:50:16.492Z,75.40
2018-04-11T10:52:43.440Z,73.30
2018-04-11T10:55:10.284Z,71.80
2018-04-11T10:57:37.147Z,72.70
2018-04-11T11:00:03.999Z,70.40
2018-04-11T11:02:30.933Z,71.40
2018-04-11T11:04:57.792Z,71.80
2018-04-11T11:07:24.664Z,71.70
2018-04-11T11:09:51.515Z,73.50
2018-04-11T11:12:18.416Z,72.60
2018-04-11T11:14:45.265Z,73.00
2018-04-11T11:17:12.113Z,74.20
2018-04-11T11:19:51.091Z,72.80
2018-04-11T11:22:18.339Z,74.30
2018-04-11T11:24:45.251Z,74.30
2018-04-11T11:27:12.111Z,74.10
2018-04-11T11:29:39.091Z,73.40
2018-04-11T11:32:06.023Z,73.10
2018-04-11T11:34:32.917Z,72.00
2018-04-11T11:36:59.802Z,71.80
2018-04-11T11:39:26.718Z,72.30
2018-04-11T11:41:53.671Z,71.00
2018-04-11T11:44:20.502Z,69.40
2018-04-11T11:46:47.473Z,69.00
2018-04-11T11:49:14.338Z,69.50
2018-04-11T11:51:41.219Z,69.50
2018-04-11T11:54:08.082Z,69.80
2018-04-11T11:56:35.130Z,67.60
2018-04-11T11:59:01.977Z,67.70
2018-04-11T12:01:28.855Z,67.90
2018-04-11T12:03:55.801Z,68.10
2018-04-11T12:06:22.635Z,67.70
2018-04-11T12:08:49.499Z,67.60
2018-04-11T12:11:16.339Z,67.60
2018-04-11T12:13:43.178Z,68.50
2018-04-11T12:16:10.177Z,69.30
2018-04-11T12:18:37.039Z,70.80
2018-04-11T12:21:03.884Z,70.60
2018-04-11T12:23:30.749Z,69.80
2018-04-11T12:25:57.691Z,69.30
2018-04-11T12:28:24.568Z,70.30
2018-04-11T12:30:51.601Z,69.70
2018-04-11T12:33:18.869Z,67.30
2018-04-11T12:35:46.086Z,66.80
2018-04-11T12:38:13.010Z,66.80
2018-04-11T12:40:39.860Z,67.40
2018-04-11T12:43:06.723Z,66.20
2018-04-11T12:45:33.571Z,66.80
2018-04-11T12:48:00.428Z,65.80
2018-04-11T12:50:27.291Z,65.60
2018-04-11T12:52:54.241Z,65.20
2018-04-11T12:55:21.090Z,65.20
2018-04-11T12:57:48.060Z,63.70
2018-04-11T13:00:14.924Z,63.30
2018-04-11T13:02:41.777Z,63.60
2018-04-11T13:05:08.649Z,63.50
2018-04-11T13:07:35.584Z,63.60
2018-04-11T13:10:02.828Z,62.10
2018-04-11T13:12:30.075Z,61.20
2018-04-11T13:14:56.944Z,61.20
2018-04-11T13:17:23.850Z,60.10
2018-04-11T13:19:50.694Z,60.30
2018-04-11T13:22:17.657Z,59.30
2018-04-11T13:24:44.711Z,59.50
2018-04-11T13:27:11.547Z,60.90
2018-04-11T13:29:38.844Z,59.70
2018-04-11T13:32:05.689Z,59.70
2018-04-11T13:34:32.664Z,59.60
2018-04-11T13:36:59.558Z,58.70
2018-04-11T13:39:26.431Z,58.30
2018-04-11T13:41:53.339Z,56.90
2018-04-11T13:44:20.199Z,57.80
2018-04-11T13:46:47.073Z,59.00
2018-04-11T13:49:13.906Z,59.00
2018-04-11T13:51:40.755Z,59.10
2018-04-11T13:54:07.719Z,57.60
2018-04-11T13:56:34.692Z,57.40
2018-04-11T13:59:01.560Z,56.40
2018-04-11T14:01:28.419Z,56.10
2018-04-11T14:03:55.362Z,53.30
2018-04-11T14:06:22.308Z,53.50
2018-04-11T14:08:49.174Z,54.50
2018-04-11T14:11:16.123Z,55.00
2018-04-11T14:13:43.084Z,55.40
2018-04-11T14:16:09.949Z,57.20
2018-04-11T14:18:36.801Z,55.30
2018-04-11T14:21:03.664Z,55.00
2018-04-11T14:23:30.525Z,55.50
2018-04-11T14:25:57.372Z,56.90
2018-04-11T14:28:24.219Z,56.20
2018-04-11T14:30:51.169Z,55.60
2018-04-11T14:33:18.406Z,54.20
2018-04-11T14:35:45.314Z,54.20
2018-04-11T14:38:12.173Z,54.40
2018-04-11T14:40:39.043Z,55.80
2018-04-11T14:43:05.878Z,56.00
2018-04-11T14:45:32.752Z,55.90
2018-04-11T14:47:59.608Z,53.90
2018-04-11T14:50:26.450Z,54.10
2018-04-11T14:52:53.313Z,55.20
2018-04-11T14:55:20.171Z,54.70
2018-04-11T14:57:47.127Z,55.00
2018-04-11T15:00:13.971Z,54.10
2018-04-11T15:02:40.937Z,54.20
2018-04-11T15:05:07.780Z,53.50
2018-04-11T15:07:34.660Z,55.10
2018-04-11T15:10:01.527Z,56.10
2018-04-11T15:12:28.659Z,55.90
2018-04-11T15:14:55.906Z,54.00
2018-04-11T15:17:23.235Z,54.40
2018-04-11T15:19:50.074Z,54.40
2018-04-11T15:22:16.970Z,54.90
2018-04-11T15:24:43.880Z,54.80
2018-04-11T15:27:10.727Z,56.40
2018-04-11T15:29:37.627Z,55.90
2018-04-11T15:32:04.550Z,55.90
2018-04-11T15:34:31.387Z,55.40
2018-04-11T15:36:58.258Z,55.10
2018-04-11T15:39:25.154Z,56.30
2018-04-11T15:41:52.024Z,57.70
2018-04-11T15:44:18.873Z,58.20
2018-04-11T15:46:45.879Z,58.70
2018-04-11T15:49:13.125Z,57.50
2018-04-11T15:51:40.025Z,57.50
2018-04-11T15:54:07.136Z,57.70
2018-04-11T15:56:34.240Z,58.10
2018-04-11T15:59:01.479Z,56.80
2018-04-11T16:01:28.330Z,56.80
2018-04-11T16:03:55.579Z,54.90
2018-04-11T16:06:22.524Z,54.90
2018-04-11T16:08:49.389Z,54.80
2018-04-11T16:11:16.312Z,53.80
2018-04-11T16:13:43.162Z,52.30
2018-04-11T16:16:10.034Z,51.70
2018-04-11T16:18:36.872Z,50.30
2018-04-11T16:21:03.793Z,49.30
2018-04-11T16:23:30.691Z,48.70
2018-04-11T16:25:57.548Z,49.30
2018-04-11T16:28:24.395Z,48.80
2018-04-11T16:30:51.371Z,49.00
2018-04-11T16:33:18.218Z,49.00
2018-04-11T16:35:45.083Z,49.00
2018-04-11T16:38:11.940Z,49.00
2018-04-11T16:40:38.836Z,50.50
2018-04-11T16:43:05.668Z,50.80
2018-04-11T16:45:32.632Z,50.70
2018-04-11T16:47:59.596Z,50.60
2018-04-11T16:50:26.445Z,50.80
2018-04-11T16:52:53.411Z,49.90
2018-04-11T16:55:20.255Z,50.40
2018-04-11T16:57:47.110Z,50.50
2018-04-11T17:00:13.971Z,51.30
2018-04-11T17:02:40.825Z,51.40
2018-04-11T17:05:07.784Z,51.40
2018-04-11T17:07:34.675Z,52.00
2018-04-11T17:10:01.528Z,52.60
2018-04-11T17:12:28.462Z,53.10
2018-04-11T17:14:55.339Z,54.00
2018-04-11T17:17:22.178Z,54.60
2018-04-11T17:19:49.124Z,56.00
2018-04-11T17:22:27.827Z,56.90
2018-04-11T17:25:06.565Z,57.40
2018-04-11T17:27:45.821Z,58.70
2018-04-11T17:33:07.675Z,59.10
2018-04-11T17:35:34.543Z,59.70
2018-04-11T17:38:01.457Z,60.40
2018-04-11T17:40:28.321Z,61.00
2018-04-11T17:42:55.172Z,61.20
2018-04-11T17:45:22.035Z,61.50
2018-04-11T17:47:48.891Z,61.50
2018-04-11T17:50:15.876Z,61.50
2018-04-11T17:52:42.748Z,61.80
2018-04-11T17:55:09.612Z,62.50
2018-04-11T17:57:36.879Z,63.50
2018-04-11T18:00:04.180Z,64.10
2018-04-11T18:02:31.059Z,64.10
2018-04-11T18:04:58.002Z,64.20
2018-04-11T18:07:24.879Z,64.70
2018-04-11T18:09:51.816Z,65.10
2018-04-11T18:12:18.754Z,65.50
2018-04-11T18:14:45.623Z,65.60
2018-04-11T18:17:12.584Z,65.50
2018-04-11T18:19:39.472Z,65.80
2018-04-11T18:22:06.329Z,66.10
2018-04-11T18:24:33.371Z,66.10
2018-04-11T18:27:00.217Z,66.20
2018-04-11T18:29:27.074Z,66.60
2018-04-11T18:31:54.030Z,66.60
2018-04-11T18:34:20.889Z,66.80
2018-04-11T18:36:47.843Z,67.40
2018-04-11T18:39:14.816Z,67.00
2018-04-11T18:41:41.792Z,67.40
2018-04-11T18:44:08.666Z,67.40
2018-04-11T18:46:35.588Z,67.70
2018-04-11T18:49:02.634Z,67.90
2018-04-11T18:51:29.547Z,67.80
2018-04-11T18:53:56.403Z,68.30
2018-04-11T18:56:23.250Z,68.10
2018-04-11T18:58:50.109Z,68.20
2018-04-11T19:01:16.951Z,68.70
2018-04-11T19:03:43.911Z,68.40
2018-04-11T19:06:10.763Z,68.30
2018-04-11T19:08:37.604Z,68.70
2018-04-11T19:11:04.609Z,68.90
2018-04-11T19:13:31.497Z,69.20
2018-04-11T19:15:58.880Z,69.60
2018-04-11T19:18:26.104Z,69.50
2018-04-11T19:20:53.015Z,69.50
2018-04-11T19:23:19.976Z,69.60
2018-04-11T19:25:46.843Z,69.70
2018-04-11T19:28:13.737Z,69.40
2018-04-11T19:30:40.574Z,69.80
2018-04-11T19:33:07.437Z,69.90
2018-04-11T19:35:34.350Z,70.00
2018-04-11T19:38:01.574Z,70.20
2018-04-11T19:40:28.487Z,70.20
2018-04-11T19:42:55.365Z,70.10
2018-04-11T19:45:22.260Z,70.10
2018-04-11T19:47:49.518Z,70.00
2018-04-11T19:50:16.372Z,70.00
2018-04-11T19:52:43.292Z,69.90
2018-04-11T19:55:10.146Z,70.00
2018-04-11T19:57:37.007Z,70.40
2018-04-11T20:00:03.859Z,70.40
2018-04-11T20:02:30.722Z,70.40
2018-04-11T20:04:57.568Z,70.50
2018-04-11T20:07:24.468Z,70.70
2018-04-11T20:09:51.477Z,70.70
2018-04-11T20:12:18.364Z,70.80
2018-04-11T20:14:45.323Z,70.90
2018-04-11T20:17:12.153Z,70.90
2018-04-11T20:19:39.015Z,70.80
2018-04-11T20:22:06.065Z,70.70
2018-04-11T20:24:33.310Z,70.90
2018-04-11T20:27:00.219Z,70.90
2018-04-11T20:29:27.176Z,70.80
2018-04-11T20:31:54.019Z,70.80
2018-04-11T20:34:21.000Z,70.80
2018-04-11T20:36:47.848Z,70.60
2018-04-11T20:39:14.860Z,70.60
2018-04-11T20:41:41.897Z,70.70
2018-04-11T20:44:08.785Z,70.40
2018-04-11T20:46:35.694Z,70.30
2018-04-11T20:49:02.553Z,70.20
2018-04-11T20:51:29.399Z,70.40
2018-04-11T20:53:56.343Z,70.30
2018-04-11T20:56:23.192Z,70.40
2018-04-11T20:58:50.052Z,70.40
2018-04-11T21:01:16.920Z,70.40
2018-04-11T21:03:43.786Z,70.40
2018-04-11T21:06:10.640Z,70.40
2018-04-11T21:08:37.502Z,70.40
2018-04-11T21:11:04.487Z,70.30
2018-04-11T21:13:31.336Z,70.20
2018-04-11T21:15:58.183Z,70.40
2018-04-11T21:18:25.056Z,70.40
2018-04-11T21:20:51.919Z,70.40
2018-04-11T21:23:18.796Z,70.40
2018-04-11T21:25:46.108Z,70.40
2018-04-11T21:28:13.016Z,70.40
2018-04-11T21:30:39.878Z,70.40
2018-04-11T21:33:06.983Z,70.40
2018-04-11T21:35:34.094Z,70.30
2018-04-11T21:38:00.953Z,70.40
2018-04-11T21:40:27.795Z,70.40
2018-04-11T21:42:54.819Z,70.20
2018-04-11T21:45:21.672Z,70.10
2018-04-11T21:47:48.637Z,70.10
2018-04-11T21:50:15.500Z,70.10
2018-04-11T21:52:42.360Z,70.10
2018-04-11T21:55:09.331Z,70.30
2018-04-11T21:57:36.234Z,70.10
2018-04-11T22:00:03.535Z,69.90
2018-04-11T22:02:30.408Z,69.90
2018-04-11T22:04:57.352Z,69.90
2018-04-11T22:07:24.369Z,69.90
2018-04-11T22:09:51.172Z,70.10
2018-04-11T22:12:18.189Z,70.00
2018-04-11T22:14:45.087Z,70.10
2018-04-11T22:17:11.952Z,69.90
2018-04-11T22:19:38.810Z,70.10
2018-04-11T22:22:05.750Z,70.20
2018-04-11T22:24:32.610Z,70.30
2018-04-11T22:26:59.488Z,70.10
2018-04-11T22:29:26.423Z,70.40
2018-04-11T22:31:53.286Z,70.50
2018-04-11T22:34:20.127Z,70.60
2018-04-11T22:36:47.084Z,70.60
2018-04-11T22:39:13.951Z,70.70
2018-04-11T22:41:40.822Z,70.70
2018-04-11T22:44:07.674Z,71.00
2018-04-11T22:46:34.639Z,70.80
2018-04-11T22:49:01.483Z,71.00
2018-04-11T22:51:28.334Z,71.20
2018-04-11T22:53:55.300Z,71.30
2018-04-11T22:56:22.262Z,71.40
2018-04-11T22:58:49.107Z,71.70
2018-04-11T23:01:15.980Z,71.80
2018-04-11T23:03:42.819Z,71.80
2018-04-11T23:06:09.784Z,71.80
2018-04-11T23:08:36.636Z,71.90
2018-04-11T23:11:03.477Z,72.10
2018-04-11T23:13:30.734Z,72.20
2018-04-11T23:15:57.988Z,72.30
2018-04-11T23:18:24.901Z,72.40
2018-04-11T23:20:51.864Z,72.60
2018-04-11T23:23:18.819Z,72.70
2018-04-11T23:25:45.773Z,72.80
2018-04-11T23:28:12.621Z,72.70
2018-04-11T23:30:39.594Z,72.70
2018-04-11T23:33:06.549Z,73.10
2018-04-11T23:35:33.404Z,73.00
2018-04-11T23:38:00.259Z,73.10
2018-04-11T23:40:27.119Z,73.30
2018-04-11T23:42:54.078Z,73.30
2018-04-11T23:45:20.913Z,73.30
2018-04-11T23:47:47.801Z,73.40
2018-04-11T23:50:14.764Z,73.40
2018-04-11T23:52:41.656Z,73.50
2018-04-11T23:55:08.578Z,73.50
2018-04-11T23:57:35.536Z,73.40
